createdAt,value
2022-12-18T00:00:00.364Z,1.04
2022-12-18T00:00:59.891Z,1.04
2022-12-18T00:02:00.157Z,1.04
2022-12-18T00:03:00.374Z,1.04
2022-12-18T00:04:00.527Z,1.04
2022-12-18T00:05:00.512Z,1.04
2022-12-18T00:06:00.659Z,1.04
2022-12-18T00:07:00.805Z,1.04
2022-12-18T00:08:00.960Z,1.04
2022-12-18T00:09:01.107Z,1.04
2022-12-18T00:10:01.240Z,1.04
2022-12-18T00:11:01.357Z,1.04
2022-12-18T00:13:05.161Z,1.04
2022-12-18T00:14:01.813Z,1.04
2022-12-18T00:15:02.550Z,1.04
2022-12-18T00:16:02.187Z,1.04
2022-12-18T00:17:02.216Z,1.04
2022-12-18T00:18:02.324Z,1.04
2022-12-18T00:19:02.477Z,1.04
2022-12-18T00:20:02.650Z,1.04
2022-12-18T00:21:02.778Z,1.04
2022-12-18T00:22:02.923Z,1.04
2022-12-18T00:23:03.024Z,1.04
2022-12-18T00:24:03.112Z,1.04
2022-12-18T00:25:03.292Z,1.04
2022-12-18T00:26:03.431Z,1.04
2022-12-18T00:27:03.585Z,1.04
2022-12-18T00:28:03.741Z,1.04
2022-12-18T00:29:03.910Z,1.04
2022-12-18T00:30:04.616Z,1.04
2022-12-18T00:31:04.248Z,1.04
2022-12-18T00:32:04.358Z,1.04
2022-12-18T00:33:04.455Z,1.04
2022-12-18T00:34:04.601Z,1.04
2022-12-18T00:35:04.758Z,1.04
2022-12-18T00:36:04.844Z,1.04
2022-12-18T00:37:05.003Z,1.04
2022-12-18T00:38:05.155Z,1.04
2022-12-18T00:39:05.321Z,1.04
2022-12-18T00:40:05.456Z,1.04
2022-12-18T00:41:05.610Z,1.04
2022-12-18T00:42:05.713Z,1.04
2022-12-18T00:43:05.854Z,1.04
2022-12-18T00:44:06.022Z,1.04
2022-12-18T00:45:12.243Z,1.04
2022-12-18T00:46:06.381Z,1.04
2022-12-18T00:47:06.412Z,1.04
2022-12-18T00:48:06.555Z,1.04
2022-12-18T00:49:06.715Z,1.04
2022-12-18T00:50:06.922Z,1.04
2022-12-18T00:51:07.688Z,1.04
2022-12-18T00:52:07.110Z,1.04
2022-12-18T00:53:07.306Z,1.04
2022-12-18T00:54:07.441Z,1.04
2022-12-18T00:55:07.533Z,1.04
2022-12-18T00:56:07.666Z,1.04
2022-12-18T00:57:07.822Z,1.04
2022-12-18T00:58:07.996Z,1.04
2022-12-18T00:59:08.086Z,1.04
2022-12-18T01:00:08.710Z,1.04
2022-12-18T01:01:08.407Z,1.04
2022-12-18T01:02:08.618Z,1.04
2022-12-18T01:03:08.656Z,1.04
2022-12-18T01:04:08.686Z,1.04
2022-12-18T01:05:08.842Z,1.04
2022-12-18T01:06:08.990Z,1.04
2022-12-18T01:07:09.148Z,1.04
2022-12-18T01:08:09.302Z,1.04
2022-12-18T01:09:09.458Z,1.04
2022-12-18T01:10:09.593Z,1.04
2022-12-18T01:11:09.766Z,1.04
2022-12-18T01:12:09.899Z,1.04
2022-12-18T01:13:10.147Z,1.04
2022-12-18T01:14:10.211Z,1.04
2022-12-18T01:15:10.858Z,1.04
2022-12-18T01:16:10.461Z,1.04
2022-12-18T01:17:10.602Z,1.04
2022-12-18T01:18:10.703Z,1.04
2022-12-18T01:19:10.855Z,1.04
2022-12-18T01:20:11.019Z,1.04
2022-12-18T01:21:11.167Z,1.04
2022-12-18T01:22:11.315Z,1.04
2022-12-18T01:23:11.474Z,1.04
2022-12-18T01:24:11.611Z,1.04
2022-12-18T01:25:11.774Z,1.04
2022-12-18T01:26:11.923Z,1.04
2022-12-18T01:27:12.026Z,1.04
2022-12-18T01:28:12.188Z,1.04
2022-12-18T01:29:12.330Z,1.04
2022-12-18T01:30:13.008Z,1.04
2022-12-18T01:31:12.692Z,1.04
2022-12-18T01:32:12.731Z,1.04
2022-12-18T01:33:12.831Z,1.04
2022-12-18T01:34:12.921Z,1.04
2022-12-18T01:35:13.083Z,1.04
2022-12-18T01:36:13.176Z,1.04
2022-12-18T01:37:13.347Z,1.04
2022-12-18T01:38:13.489Z,1.04
2022-12-18T01:39:13.639Z,1.04
2022-12-18T01:40:13.739Z,1.04
2022-12-18T01:41:13.852Z,1.04
2022-12-18T01:42:13.943Z,1.04
2022-12-18T01:43:14.087Z,1.04
2022-12-18T01:44:14.199Z,1.04
2022-12-18T01:45:14.907Z,1.04
2022-12-18T01:46:14.618Z,1.04
2022-12-18T01:47:14.648Z,1.04
2022-12-18T01:48:14.811Z,1.04
2022-12-18T01:49:14.911Z,1.04
2022-12-18T01:50:15.072Z,1.04
2022-12-18T01:51:15.261Z,1.04
2022-12-18T01:52:15.464Z,1.04
2022-12-18T01:53:15.555Z,1.04
2022-12-18T01:54:16.205Z,1.04
2022-12-18T01:55:15.812Z,1.04
2022-12-18T01:56:15.962Z,1.04
2022-12-18T01:57:16.116Z,1.04
2022-12-18T01:58:16.278Z,1.04
2022-12-18T01:59:16.418Z,1.04
2022-12-18T02:00:17.244Z,1.04
2022-12-18T02:01:16.872Z,1.04
2022-12-18T02:02:17.007Z,1.04
2022-12-18T02:03:17.079Z,1.04
2022-12-18T02:04:17.096Z,1.04
2022-12-18T02:05:17.227Z,1.04
2022-12-18T02:06:17.385Z,1.04
2022-12-18T02:07:17.497Z,1.04
2022-12-18T02:08:17.683Z,1.04
2022-12-18T02:09:17.782Z,1.04
2022-12-18T02:10:17.950Z,1.04
2022-12-18T02:11:18.094Z,1.04
2022-12-18T02:12:18.237Z,1.04
2022-12-18T02:13:18.393Z,1.04
2022-12-18T02:14:18.541Z,1.04
2022-12-18T02:15:19.312Z,1.04
2022-12-18T02:16:18.889Z,1.04
2022-12-18T02:17:19.011Z,1.04
2022-12-18T02:18:19.095Z,1.04
2022-12-18T02:19:19.247Z,1.04
2022-12-18T02:20:19.368Z,1.04
2022-12-18T02:21:19.511Z,1.04
2022-12-18T02:22:19.652Z,1.04
2022-12-18T02:23:19.754Z,1.04
2022-12-18T02:24:19.907Z,1.04
2022-12-18T02:25:20.059Z,1.04
2022-12-18T02:26:20.207Z,1.04
2022-12-18T02:27:20.358Z,1.04
2022-12-18T02:28:20.511Z,1.04
2022-12-18T02:29:20.611Z,1.04
2022-12-18T02:30:21.290Z,1.04
2022-12-18T02:31:20.869Z,1.04
2022-12-18T02:32:21.037Z,1.04
2022-12-18T02:33:21.173Z,1.04
2022-12-18T02:34:21.333Z,1.04
2022-12-18T02:35:21.475Z,1.04
2022-12-18T02:36:21.613Z,1.04
2022-12-18T02:37:22.170Z,1.04
2022-12-18T02:38:21.918Z,1.04
2022-12-18T02:39:22.025Z,1.04
2022-12-18T02:40:22.523Z,1.04
2022-12-18T02:41:22.269Z,1.04
2022-12-18T02:42:22.378Z,1.04
2022-12-18T02:43:22.534Z,1.04
2022-12-18T02:44:22.622Z,1.04
2022-12-18T02:45:22.787Z,1.04
2022-12-18T02:46:22.913Z,1.04
2022-12-18T02:47:23.088Z,1.04
2022-12-18T02:48:23.250Z,1.04
2022-12-18T02:49:23.401Z,1.04
2022-12-18T02:50:23.505Z,1.04
2022-12-18T02:51:23.639Z,1.04
2022-12-18T02:52:23.803Z,1.04
2022-12-18T02:53:23.948Z,1.04
2022-12-18T02:54:24.113Z,1.04
2022-12-18T02:55:24.257Z,1.04
2022-12-18T02:56:24.356Z,1.04
2022-12-18T02:57:24.458Z,1.04
2022-12-18T02:58:24.603Z,1.04
2022-12-18T02:59:24.705Z,1.04
2022-12-18T03:00:25.429Z,1.04
2022-12-18T03:01:24.995Z,1.04
2022-12-18T03:02:25.200Z,1.04
2022-12-18T03:03:25.242Z,1.04
2022-12-18T03:04:25.369Z,1.04
2022-12-18T03:05:25.517Z,1.04
2022-12-18T03:06:25.672Z,1.04
2022-12-18T03:07:25.828Z,1.04
2022-12-18T03:08:25.970Z,1.04
2022-12-18T03:09:26.123Z,1.04
2022-12-18T03:10:26.277Z,1.04
2022-12-18T03:11:26.392Z,1.04
2022-12-18T03:12:26.540Z,1.04
2022-12-18T03:13:26.682Z,1.04
2022-12-18T03:14:26.811Z,1.04
2022-12-18T03:15:27.433Z,1.04
2022-12-18T03:16:27.163Z,1.04
2022-12-18T03:17:27.178Z,1.04
2022-12-18T03:18:27.343Z,1.04
2022-12-18T03:19:27.438Z,1.04
2022-12-18T03:20:27.590Z,1.04
2022-12-18T03:21:27.739Z,1.04
2022-12-18T03:22:27.886Z,1.04
2022-12-18T03:23:28.049Z,1.04
2022-12-18T03:24:28.210Z,1.04
2022-12-18T03:25:28.355Z,1.04
2022-12-18T03:26:28.490Z,1.04
2022-12-18T03:27:28.649Z,1.04
2022-12-18T03:28:28.803Z,1.04
2022-12-18T03:29:28.953Z,1.04
2022-12-18T03:30:29.652Z,1.04
2022-12-18T03:31:29.263Z,1.04
2022-12-18T03:32:29.300Z,1.04
2022-12-18T03:33:29.409Z,1.04
2022-12-18T03:34:29.563Z,1.04
2022-12-18T03:35:29.712Z,1.04
2022-12-18T03:36:29.859Z,1.04
2022-12-18T03:37:30.012Z,1.04
2022-12-18T03:38:30.167Z,1.04
2022-12-18T03:39:30.296Z,1.04
2022-12-18T03:40:30.364Z,1.04
2022-12-18T03:41:30.484Z,1.04
2022-12-18T03:42:30.645Z,1.04
2022-12-18T03:43:30.773Z,1.04
2022-12-18T03:44:31.539Z,1.04
2022-12-18T03:45:31.068Z,1.04
2022-12-18T03:46:31.295Z,1.04
2022-12-18T03:47:31.498Z,1.04
2022-12-18T03:48:32.393Z,1.04
2022-12-18T03:49:31.726Z,1.04
2022-12-18T03:50:31.881Z,1.04
2022-12-18T03:51:31.995Z,1.04
2022-12-18T03:52:32.133Z,1.04
2022-12-18T03:53:32.233Z,1.04
2022-12-18T03:54:32.387Z,1.04
2022-12-18T03:55:32.549Z,1.04
2022-12-18T03:56:32.696Z,1.04
2022-12-18T03:57:32.837Z,1.04
2022-12-18T03:58:33.002Z,1.04
2022-12-18T03:59:33.730Z,1.04
2022-12-18T04:00:33.291Z,1.04
2022-12-18T04:01:33.516Z,1.04
2022-12-18T04:02:33.795Z,1.04
2022-12-18T04:03:33.836Z,1.04
2022-12-18T04:04:33.906Z,1.04
2022-12-18T04:05:34.054Z,1.04
2022-12-18T04:06:34.204Z,1.04
2022-12-18T04:07:34.356Z,1.04
2022-12-18T04:08:34.509Z,1.04
2022-12-18T04:09:34.652Z,1.04
2022-12-18T04:10:34.809Z,1.04
2022-12-18T04:11:34.961Z,1.04
2022-12-18T04:12:35.113Z,1.04
2022-12-18T04:13:35.275Z,1.04
2022-12-18T04:14:35.968Z,1.04
2022-12-18T04:15:35.638Z,1.04
2022-12-18T04:16:35.667Z,1.04
2022-12-18T04:17:35.794Z,1.04
2022-12-18T04:18:35.926Z,1.04
2022-12-18T04:19:36.078Z,1.04
2022-12-18T04:20:36.227Z,1.04
2022-12-18T04:21:36.381Z,1.04
2022-12-18T04:22:36.522Z,1.04
2022-12-18T04:23:36.871Z,1.04
2022-12-18T04:24:36.824Z,1.04
2022-12-18T04:25:36.929Z,1.04
2022-12-18T04:26:37.096Z,1.04
2022-12-18T04:27:37.246Z,1.04
2022-12-18T04:28:37.396Z,1.04
2022-12-18T04:29:38.213Z,1.04
2022-12-18T04:30:37.639Z,1.04
2022-12-18T04:31:37.857Z,1.04
2022-12-18T04:32:37.946Z,1.04
2022-12-18T04:33:38.525Z,1.04
2022-12-18T04:34:38.249Z,1.04
2022-12-18T04:35:38.377Z,1.04
2022-12-18T04:36:38.573Z,1.04
2022-12-18T04:37:38.861Z,1.04
2022-12-18T04:38:38.840Z,1.04
2022-12-18T04:39:39.005Z,1.04
2022-12-18T04:40:39.132Z,1.04
2022-12-18T04:41:39.264Z,1.04
2022-12-18T04:42:39.470Z,1.04
2022-12-18T04:43:39.986Z,1.04
2022-12-18T04:44:40.288Z,1.04
2022-12-18T04:45:39.853Z,1.04
2022-12-18T04:46:39.995Z,1.04
2022-12-18T04:47:40.102Z,1.04
2022-12-18T04:48:40.892Z,1.04
2022-12-18T04:49:40.417Z,1.04
2022-12-18T04:50:40.589Z,1.04
2022-12-18T04:51:40.720Z,1.04
2022-12-18T04:52:40.876Z,1.04
2022-12-18T04:53:41.352Z,1.04
2022-12-18T04:54:41.124Z,1.04
2022-12-18T04:55:41.278Z,1.04
2022-12-18T04:56:41.429Z,1.04
2022-12-18T04:57:41.577Z,1.04
2022-12-18T04:58:41.728Z,1.04
2022-12-18T04:59:41.881Z,1.04
2022-12-18T05:00:42.555Z,1.04
2022-12-18T05:01:42.198Z,1.04
2022-12-18T05:02:42.422Z,1.04
2022-12-18T05:03:42.896Z,1.04
2022-12-18T05:04:42.546Z,1.04
2022-12-18T05:05:42.648Z,1.04
2022-12-18T05:06:42.798Z,1.04
2022-12-18T05:07:42.951Z,1.04
2022-12-18T05:08:43.098Z,1.04
2022-12-18T05:09:43.220Z,1.04
2022-12-18T05:10:43.363Z,1.04
2022-12-18T05:11:43.494Z,1.04
2022-12-18T05:12:43.648Z,1.04
2022-12-18T05:13:43.800Z,1.04
2022-12-18T05:14:44.527Z,1.04
2022-12-18T05:15:44.134Z,1.04
2022-12-18T05:16:44.149Z,1.04
2022-12-18T05:17:44.316Z,1.04
2022-12-18T05:18:44.455Z,1.04
2022-12-18T05:19:44.605Z,1.04
2022-12-18T05:20:44.707Z,1.04
2022-12-18T05:21:44.871Z,1.04
2022-12-18T05:22:44.963Z,1.04
2022-12-18T05:23:45.102Z,1.04
2022-12-18T05:24:45.219Z,1.04
2022-12-18T05:25:45.379Z,1.04
2022-12-18T05:26:45.530Z,1.04
2022-12-18T05:27:45.716Z,1.04
2022-12-18T05:28:46.352Z,1.04
2022-12-18T05:29:46.485Z,1.04
2022-12-18T05:30:46.116Z,1.04
2022-12-18T05:31:46.282Z,1.04
2022-12-18T05:32:46.393Z,1.04
2022-12-18T05:33:46.526Z,1.04
2022-12-18T05:34:46.678Z,1.04
2022-12-18T05:35:46.831Z,1.04
2022-12-18T05:36:46.988Z,1.04
2022-12-18T05:37:47.103Z,1.04
2022-12-18T05:38:47.193Z,1.04
2022-12-18T05:39:47.343Z,1.04
2022-12-18T05:40:47.492Z,1.04
2022-12-18T05:41:47.645Z,1.04
2022-12-18T05:42:47.795Z,1.04
2022-12-18T05:43:47.954Z,1.04
2022-12-18T05:44:48.629Z,1.04
2022-12-18T05:45:48.237Z,1.04
2022-12-18T05:46:48.396Z,1.04
2022-12-18T05:47:48.504Z,1.04
2022-12-18T05:48:48.654Z,1.04
2022-12-18T05:49:48.813Z,1.04
2022-12-18T05:50:48.962Z,1.04
2022-12-18T05:51:49.107Z,1.04
2022-12-18T05:52:49.254Z,1.04
2022-12-18T05:53:49.411Z,1.04
2022-12-18T05:54:49.583Z,1.04
2022-12-18T05:55:49.721Z,1.04
2022-12-18T05:56:49.821Z,1.04
2022-12-18T05:57:49.970Z,1.04
2022-12-18T05:58:50.116Z,1.04
2022-12-18T05:59:50.866Z,1.04
2022-12-18T06:00:50.419Z,1.04
2022-12-18T06:01:50.660Z,1.04
2022-12-18T06:02:50.829Z,1.04
2022-12-18T06:03:50.954Z,1.04
2022-12-18T06:04:51.026Z,1.04
2022-12-18T06:05:51.176Z,1.04
2022-12-18T06:06:51.331Z,1.04
2022-12-18T06:07:51.485Z,1.04
2022-12-18T06:08:51.586Z,1.04
2022-12-18T06:09:51.747Z,1.04
2022-12-18T06:10:51.885Z,1.04
2022-12-18T06:11:52.054Z,1.04
2022-12-18T06:12:52.160Z,1.04
2022-12-18T06:13:56.277Z,1.04
2022-12-18T06:14:52.975Z,1.04
2022-12-18T06:15:52.514Z,2
2022-12-18T06:16:52.605Z,2
2022-12-18T06:17:52.753Z,2
2022-12-18T06:18:52.925Z,2
2022-12-18T06:19:53.056Z,2
2022-12-18T06:20:53.208Z,3.04
2022-12-18T06:21:53.349Z,3.04
2022-12-18T06:22:53.512Z,3.04
2022-12-18T06:23:53.659Z,3.04
2022-12-18T06:24:53.807Z,4
2022-12-18T06:25:53.956Z,4
2022-12-18T06:26:54.109Z,5.04
2022-12-18T06:27:54.251Z,6
2022-12-18T06:28:54.413Z,7.04
2022-12-18T06:29:55.038Z,7.04
2022-12-18T06:30:54.651Z,9.04
2022-12-18T06:31:54.847Z,10
2022-12-18T06:32:56.820Z,12
2022-12-18T06:33:55.116Z,15.04
2022-12-18T06:34:55.291Z,17.04
2022-12-18T06:36:00.847Z,20
2022-12-18T06:36:55.536Z,23.04
2022-12-18T06:37:55.681Z,27.04
2022-12-18T06:38:55.835Z,31.04
2022-12-18T06:39:55.971Z,38
2022-12-18T06:40:56.128Z,44
2022-12-18T06:41:56.288Z,50
2022-12-18T06:42:56.433Z,59.04
2022-12-18T06:43:59.661Z,68
2022-12-18T06:44:57.265Z,79.04
2022-12-18T06:45:56.897Z,90
2022-12-18T06:46:56.933Z,83.04
2022-12-18T06:47:57.089Z,94
2022-12-18T06:48:57.242Z,108
2022-12-18T06:49:57.395Z,121.04
2022-12-18T06:50:57.563Z,138
2022-12-18T06:51:57.694Z,153.04
2022-12-18T06:52:57.864Z,170.08
2022-12-18T06:53:58.012Z,193.12
2022-12-18T06:54:58.150Z,212
2022-12-18T06:55:58.303Z,233.12
2022-12-18T06:56:58.453Z,260
2022-12-18T06:57:58.607Z,284
2022-12-18T06:58:58.771Z,314.08
2022-12-18T06:59:59.575Z,340.16
2022-12-18T07:00:59.117Z,368
2022-12-18T07:01:59.340Z,398.08
2022-12-18T07:02:59.407Z,436.16
2022-12-18T07:03:59.471Z,467.2
2022-12-18T07:04:59.612Z,500.16
2022-12-18T07:05:59.772Z,533.12
2022-12-18T07:06:59.872Z,577.28
2022-12-18T07:08:00.052Z,614.08
2022-12-18T07:09:00.173Z,651.2
2022-12-18T07:10:00.338Z,688
2022-12-18T07:11:00.419Z,728.32
2022-12-18T07:12:00.573Z,768
2022-12-18T07:13:00.726Z,809.6
2022-12-18T07:14:00.888Z,858.24
2022-12-18T07:15:01.606Z,900.48
2022-12-18T07:16:01.221Z,951.04
2022-12-18T07:17:01.326Z,997.12
2022-12-18T07:18:01.438Z,1040
2022-12-18T07:19:01.546Z,1092.48
2022-12-18T07:20:01.622Z,1133.44
2022-12-18T07:21:01.780Z,1171.2
2022-12-18T07:22:01.943Z,1224.32
2022-12-18T07:23:02.090Z,1260.16
2022-12-18T07:24:02.239Z,1287.04
2022-12-18T07:25:02.429Z,1391.36
2022-12-18T07:26:02.547Z,1437.44
2022-12-18T07:27:02.659Z,1496.32
2022-12-18T07:28:02.792Z,1546.24
2022-12-18T07:29:02.949Z,1588.48
2022-12-18T07:30:03.605Z,1637.12
2022-12-18T07:31:03.193Z,1698.56
2022-12-18T07:32:03.351Z,1742.08
2022-12-18T07:33:03.476Z,1797.12
2022-12-18T07:34:03.611Z,1861.12
2022-12-18T07:35:03.757Z,1916.16
2022-12-18T07:36:03.917Z,1967.36
2022-12-18T07:37:04.073Z,2032.64
2022-12-18T07:38:04.194Z,2076.16
2022-12-18T07:39:04.320Z,2112
2022-12-18T07:40:04.467Z,2155.52
2022-12-18T07:41:04.616Z,2190.08
2022-12-18T07:42:04.800Z,2237.44
2022-12-18T07:43:04.916Z,2282.24
2022-12-18T07:44:05.074Z,2325.76
2022-12-18T07:45:05.793Z,2368
2022-12-18T07:46:05.432Z,2435.84
2022-12-18T07:47:09.080Z,2478.08
2022-12-18T07:48:05.678Z,2519.04
2022-12-18T07:49:05.835Z,2813.44
2022-12-18T07:50:05.984Z,2992.64
2022-12-18T07:51:06.142Z,2790.4
2022-12-18T07:52:06.284Z,2677.76
2022-12-18T07:53:06.455Z,2731.52
2022-12-18T07:54:06.584Z,2787.84
2022-12-18T07:55:06.731Z,2821.12
2022-12-18T07:56:26.327Z,2926.08
2022-12-18T07:57:16.374Z,3023.36
2022-12-18T07:58:07.149Z,2982.4
2022-12-18T07:59:07.312Z,2995.2
2022-12-18T08:00:07.968Z,3008
2022-12-18T08:01:07.643Z,3054.08
2022-12-18T08:02:07.795Z,3105.28
2022-12-18T08:03:07.919Z,3136
2022-12-18T08:04:08.010Z,3171.84
2022-12-18T08:05:08.152Z,3220.48
2022-12-18T08:06:08.305Z,3875.84
2022-12-18T08:07:08.450Z,5122.56
2022-12-18T08:08:08.622Z,6471.68
2022-12-18T08:09:08.767Z,7546.88
2022-12-18T08:10:08.865Z,8089.6
2022-12-18T08:11:09.008Z,8345.6
2022-12-18T08:12:09.193Z,8560.64
2022-12-18T08:13:09.302Z,8724.479
2022-12-18T08:14:09.465Z,8878.08
2022-12-18T08:15:10.141Z,9011.2
2022-12-18T08:16:09.781Z,9175.04
2022-12-18T08:17:09.864Z,9333.76
2022-12-18T08:18:14.005Z,9512.96
2022-12-18T08:19:10.081Z,9666.56
2022-12-18T08:20:10.181Z,9896.96
2022-12-18T08:21:10.327Z,10035.2
2022-12-18T08:22:10.473Z,10158.08
2022-12-18T08:23:10.623Z,10311.68
2022-12-18T08:24:10.777Z,10424.319
2022-12-18T08:25:10.942Z,10608.64
2022-12-18T08:26:11.118Z,10741.76
2022-12-18T08:27:28.656Z,10833.92
2022-12-18T08:28:11.336Z,10977.279
2022-12-18T08:29:11.495Z,11130.88
2022-12-18T08:30:12.283Z,11294.72
2022-12-18T08:31:11.817Z,11438.08
2022-12-18T08:32:12.005Z,11509.76
2022-12-18T08:33:12.144Z,11642.88
2022-12-18T08:34:12.235Z,11776
2022-12-18T08:35:12.391Z,11888.64
2022-12-18T08:36:12.544Z,12052.479
2022-12-18T08:37:12.692Z,12216.319
2022-12-18T08:38:12.805Z,12318.72
2022-12-18T08:39:12.960Z,12421.12
2022-12-18T08:40:13.103Z,12492.8
2022-12-18T08:41:13.223Z,12584.96
2022-12-18T08:42:13.367Z,12656.64
2022-12-18T08:43:13.524Z,12728.319
2022-12-18T08:44:13.619Z,12759.04
2022-12-18T08:45:14.766Z,12881.92
2022-12-18T08:46:13.970Z,12933.12
2022-12-18T08:47:14.025Z,12933.12
2022-12-18T08:48:17.849Z,13731.84
2022-12-18T08:49:14.304Z,13834.239
2022-12-18T08:50:14.502Z,13926.399
2022-12-18T08:51:14.593Z,13998.08
2022-12-18T08:52:14.718Z,14151.68
2022-12-18T08:53:14.882Z,14336
2022-12-18T08:54:15.012Z,14489.6
2022-12-18T08:55:15.134Z,14673.92
2022-12-18T08:56:15.230Z,14735.359
2022-12-18T08:57:15.380Z,14776.319
2022-12-18T08:58:15.469Z,14878.72
2022-12-18T08:59:19.265Z,14888.96
2022-12-18T09:00:16.347Z,15011.84
2022-12-18T09:01:16.044Z,15022.08
2022-12-18T09:02:16.186Z,15104
2022-12-18T09:03:16.227Z,15226.88
2022-12-18T09:04:16.236Z,15298.56
2022-12-18T09:05:16.382Z,15308.8
2022-12-18T09:06:16.551Z,15400.96
2022-12-18T09:07:16.691Z,15493.12
2022-12-18T09:08:16.850Z,15534.08
2022-12-18T09:09:17.017Z,15636.479
2022-12-18T09:10:17.141Z,15708.159
2022-12-18T09:11:17.305Z,15872
2022-12-18T09:12:17.449Z,15831.04
2022-12-18T09:13:17.600Z,15974.399
2022-12-18T09:14:17.748Z,15994.88
2022-12-18T09:15:18.472Z,16076.8
2022-12-18T09:16:18.091Z,16107.52
2022-12-18T09:17:18.250Z,16230.399
2022-12-18T09:18:18.331Z,16087.04
2022-12-18T09:19:18.455Z,16056.319
2022-12-18T09:20:18.622Z,16117.76
2022-12-18T09:21:18.774Z,16117.76
2022-12-18T09:22:18.894Z,16148.479
2022-12-18T09:23:19.017Z,16107.52
2022-12-18T09:24:19.168Z,15912.96
2022-12-18T09:25:19.345Z,15738.88
2022-12-18T09:26:19.498Z,15564.8
2022-12-18T09:27:19.616Z,15349.76
2022-12-18T09:28:19.796Z,15185.92
2022-12-18T09:29:19.929Z,15063.04
2022-12-18T09:30:20.623Z,15011.84
2022-12-18T09:31:20.267Z,14592
2022-12-18T09:32:22.418Z,14612.479
2022-12-18T09:33:20.525Z,14909.439
2022-12-18T09:34:20.675Z,14878.72
2022-12-18T09:35:20.820Z,14848
2022-12-18T09:36:20.988Z,14827.52
2022-12-18T09:37:21.145Z,14776.319
2022-12-18T09:38:21.246Z,14766.08
2022-12-18T09:39:21.814Z,14735.359
2022-12-18T09:40:21.579Z,14714.88
2022-12-18T09:41:21.722Z,14714.88
2022-12-18T09:42:21.871Z,14663.68
2022-12-18T09:43:21.993Z,14694.399
2022-12-18T09:44:22.224Z,14673.92
2022-12-18T09:45:22.819Z,14632.96
2022-12-18T09:46:22.502Z,14622.72
2022-12-18T09:47:22.591Z,14602.239
2022-12-18T09:48:22.693Z,14530.56
2022-12-18T09:49:22.855Z,14540.8
2022-12-18T09:50:22.961Z,14489.6
2022-12-18T09:51:23.133Z,14489.6
2022-12-18T09:52:23.263Z,14346.239
2022-12-18T09:53:23.356Z,14336
2022-12-18T09:54:23.456Z,14305.279
2022-12-18T09:55:23.605Z,14213.12
2022-12-18T09:56:23.757Z,14202.88
2022-12-18T09:57:23.911Z,14243.84
2022-12-18T09:58:24.090Z,14202.88
2022-12-18T09:59:24.216Z,14243.84
2022-12-18T10:00:24.889Z,14141.439
2022-12-18T10:01:24.624Z,14161.92
2022-12-18T10:02:24.758Z,14008.319
2022-12-18T10:03:24.711Z,14008.319
2022-12-18T10:04:24.912Z,14049.279
2022-12-18T10:05:25.023Z,14100.479
2022-12-18T10:06:25.165Z,14080
2022-12-18T10:07:25.321Z,14131.199
2022-12-18T10:08:25.440Z,14110.72
2022-12-18T10:09:26.482Z,14110.72
2022-12-18T10:10:25.848Z,14100.479
2022-12-18T10:11:25.970Z,14080
2022-12-18T10:12:26.028Z,14090.239
2022-12-18T10:13:26.135Z,14049.279
2022-12-18T10:14:26.294Z,14008.319
2022-12-18T10:15:26.907Z,13987.84
2022-12-18T10:16:26.660Z,13987.84
2022-12-18T10:17:26.795Z,13946.88
2022-12-18T10:18:26.910Z,13936.64
2022-12-18T10:19:27.041Z,13916.16
2022-12-18T10:20:27.198Z,13731.84
2022-12-18T10:21:27.342Z,13731.84
2022-12-18T10:22:27.501Z,13803.52
2022-12-18T10:23:27.651Z,13762.56
2022-12-18T10:24:27.805Z,13772.8
2022-12-18T10:25:27.955Z,13680.64
2022-12-18T10:26:28.103Z,13660.16
2022-12-18T10:27:28.208Z,13568
2022-12-18T10:28:28.368Z,13465.6
2022-12-18T10:29:28.504Z,13445.12
2022-12-18T10:30:29.286Z,13434.88
2022-12-18T10:31:28.904Z,13404.16
2022-12-18T10:32:28.956Z,13414.399
2022-12-18T10:33:29.072Z,13363.199
2022-12-18T10:34:29.214Z,13312
2022-12-18T10:35:29.368Z,13260.8
2022-12-18T10:36:29.518Z,13219.84
2022-12-18T10:37:29.669Z,13096.96
2022-12-18T10:38:29.825Z,12963.84
2022-12-18T10:39:30.018Z,12943.359
2022-12-18T10:40:30.175Z,12840.96
2022-12-18T10:41:30.269Z,12718.08
2022-12-18T10:42:30.441Z,12441.6
2022-12-18T10:43:30.585Z,12451.84
2022-12-18T10:44:31.293Z,12544
2022-12-18T10:45:30.880Z,12574.72
2022-12-18T10:46:31.135Z,12523.52
2022-12-18T10:47:31.129Z,12359.68
2022-12-18T10:48:31.323Z,12134.399
2022-12-18T10:49:31.416Z,12083.2
2022-12-18T10:50:47.105Z,11284.479
2022-12-18T10:51:31.901Z,10496
2022-12-18T10:52:31.890Z,10147.84
2022-12-18T10:53:32.045Z,9902.08
2022-12-18T10:54:32.188Z,9410.56
2022-12-18T10:55:32.349Z,9006.08
2022-12-18T10:56:32.509Z,8908.8
2022-12-18T10:57:32.660Z,9231.359
2022-12-18T10:58:32.798Z,9825.279
2022-12-18T10:59:33.467Z,9528.319
2022-12-18T11:00:33.102Z,9057.28
2022-12-18T11:01:33.316Z,9446.399
2022-12-18T11:02:33.552Z,9830.399
2022-12-18T11:03:33.620Z,9395.2
2022-12-18T11:04:33.763Z,9246.72
2022-12-18T11:05:33.886Z,8929.28
2022-12-18T11:06:34.010Z,8371.2
2022-12-18T11:07:34.162Z,8350.72
2022-12-18T11:08:34.320Z,8263.68
2022-12-18T11:09:34.462Z,8181.76
2022-12-18T11:10:34.573Z,8033.28
2022-12-18T11:11:34.733Z,7900.16
2022-12-18T11:12:34.883Z,8023.04
2022-12-18T11:13:35.037Z,8069.12
2022-12-18T11:14:35.692Z,7552
2022-12-18T11:15:35.315Z,7628.8
2022-12-18T11:16:35.501Z,8376.32
2022-12-18T11:17:35.522Z,8371.2
2022-12-18T11:18:35.665Z,8616.96
2022-12-18T11:19:35.800Z,8529.92
2022-12-18T11:20:36.603Z,8110.08
2022-12-18T11:21:36.157Z,7992.32
2022-12-18T11:22:36.288Z,7521.28
2022-12-18T11:23:36.441Z,7961.6
2022-12-18T11:24:36.537Z,8294.4
2022-12-18T11:25:36.718Z,8872.96
2022-12-18T11:26:36.860Z,9031.68
2022-12-18T11:27:36.993Z,9815.04
2022-12-18T11:28:37.381Z,10055.68
2022-12-18T11:29:40.692Z,10296.319
2022-12-18T11:30:37.466Z,10444.8
2022-12-18T11:31:37.649Z,10506.24
2022-12-18T11:32:37.738Z,10275.84
2022-12-18T11:33:37.894Z,10240
2022-12-18T11:34:37.990Z,10480.64
2022-12-18T11:35:38.091Z,10378.24
2022-12-18T11:36:38.209Z,10577.92
2022-12-18T11:37:38.360Z,10470.399
2022-12-18T11:38:38.924Z,10547.2
2022-12-18T11:39:38.666Z,10485.76
2022-12-18T11:40:41.193Z,10424.319
2022-12-18T11:41:38.866Z,9896.96
2022-12-18T11:42:38.964Z,9349.12
2022-12-18T11:43:39.139Z,9006.08
2022-12-18T11:44:39.958Z,9195.52
2022-12-18T11:45:39.405Z,9210.88
2022-12-18T11:46:39.615Z,8744.96
2022-12-18T11:47:39.751Z,8012.8
2022-12-18T11:48:40.284Z,6671.36
2022-12-18T11:49:40.030Z,8166.4
2022-12-18T11:50:40.135Z,9128.96
2022-12-18T11:51:40.284Z,8944.64
2022-12-18T11:52:40.376Z,8360.96
2022-12-18T11:53:40.525Z,8488.96
2022-12-18T11:54:40.668Z,8222.72
2022-12-18T11:55:40.846Z,8320
2022-12-18T11:56:41.006Z,8657.92
2022-12-18T11:57:41.132Z,8494.08
2022-12-18T11:58:41.481Z,7756.8
2022-12-18T11:59:42.033Z,7874.56
2022-12-18T12:00:41.583Z,7720.96
2022-12-18T12:01:44.198Z,7536.64
2022-12-18T12:02:41.963Z,7895.04
2022-12-18T12:03:42.450Z,8012.8
2022-12-18T12:04:42.048Z,7818.24
2022-12-18T12:05:42.199Z,7874.56
2022-12-18T12:06:42.828Z,8360.96
2022-12-18T12:07:42.459Z,7838.72
2022-12-18T12:08:42.600Z,7388.16
2022-12-18T12:09:42.754Z,7475.2
2022-12-18T12:10:42.897Z,7930.88
2022-12-18T12:11:43.044Z,7726.08
2022-12-18T12:12:47.989Z,7009.28
2022-12-18T12:13:43.731Z,6635.52
2022-12-18T12:14:43.967Z,6425.6
2022-12-18T12:15:43.545Z,6594.56
2022-12-18T12:16:43.757Z,6681.6
2022-12-18T12:17:43.861Z,6732.8
2022-12-18T12:18:43.971Z,6661.12
2022-12-18T12:19:44.107Z,6548.48
2022-12-18T12:20:44.274Z,6799.36
2022-12-18T12:21:44.424Z,6891.52
2022-12-18T12:22:44.527Z,7019.52
2022-12-18T12:23:45.001Z,7014.4
2022-12-18T12:24:44.773Z,7014.4
2022-12-18T12:25:44.925Z,6932.48
2022-12-18T12:26:45.101Z,6865.92
2022-12-18T12:27:45.234Z,6886.4
2022-12-18T12:28:45.330Z,6952.96
2022-12-18T12:29:46.080Z,7009.28
2022-12-18T12:30:45.624Z,6932.48
2022-12-18T12:31:45.883Z,6758.4
2022-12-18T12:32:45.887Z,6681.6
2022-12-18T12:33:46.029Z,6727.68
2022-12-18T12:34:46.082Z,6696.96
2022-12-18T12:35:46.232Z,6696.96
2022-12-18T12:36:46.391Z,6717.44
2022-12-18T12:37:46.550Z,6804.48
2022-12-18T12:38:51.526Z,6891.52
2022-12-18T12:39:46.795Z,7132.16
2022-12-18T12:40:53.674Z,7168
2022-12-18T12:41:47.095Z,7265.28
2022-12-18T12:42:47.258Z,7311.36
2022-12-18T12:43:50.762Z,7311.36
2022-12-18T12:44:51.345Z,7173.12